Time;durP1;ratioP1;P1;durP2;ratioP2;P2;SDS_P1;SDS_P2;PMS_P1;PMS_P2;Temp;Humidity;BMP_temperature;BMP_pressure;BME280_temperature;BME280_humidity;BME280_pressure;Samples;Min_cycle;Max_cycle;Signal;HPM_P1;HPM_P2
2021/12/08 00:02:27;;;;;;;20.62;15.23;;;5.20;81.30;;;;;;10826971;33;20024;-70
2021/12/08 00:08:32;;;;;;;18.27;14.18;;;5.20;81.20;;;;;;10826925;32;20070;-70
2021/12/08 00:14:35;;;;;;;15.85;11.50;;;5.10;81.10;;;;;;10813471;32;20031;-70
2021/12/08 00:20:39;;;;;;;17.48;12.70;;;5.10;81.20;;;;;;10825793;33;20092;-70
2021/12/08 00:26:42;;;;;;;16.92;12.48;;;5.10;81.10;;;;;;10826382;33;20069;-70
2021/12/08 00:32:45;;;;;;;15.27;11.75;;;5.20;81.00;;;;;;10825942;33;20357;-70
2021/12/08 00:38:47;;;;;;;16.12;10.02;;;5.10;81.10;;;;;;10825634;32;20335;-71
2021/12/08 00:44:49;;;;;;;13.82;11.05;;;5.10;81.10;;;;;;10825748;33;20027;-70
2021/12/08 00:50:52;;;;;;;16.15;11.40;;;5.00;81.00;;;;;;10825495;33;20024;-70
2021/12/08 00:56:54;;;;;;;12.82;9.85;;;5.00;81.40;;;;;;10822333;33;20023;-70
2021/12/08 01:02:57;;;;;;;14.00;10.80;;;5.10;81.50;;;;;;10825233;33;20046;-71
2021/12/08 01:08:59;;;;;;;13.45;9.02;;;5.10;81.90;;;;;;10824952;33;20042;-70
2021/12/08 01:15:03;;;;;;;12.40;8.93;;;5.10;81.90;;;;;;10825251;33;20328;-70
2021/12/08 01:21:08;;;;;;;22.55;9.20;;;5.10;81.70;;;;;;10824908;33;20051;-70
2021/12/08 01:27:10;;;;;;;15.05;10.02;;;4.90;81.50;;;;;;10823615;33;20028;-70
2021/12/08 01:33:13;;;;;;;11.80;8.18;;;4.90;81.40;;;;;;10810979;33;20054;-70
2021/12/08 01:39:15;;;;;;;13.45;9.85;;;4.90;81.60;;;;;;10824523;33;20016;-71
2021/12/08 01:51:42;;;;;;;10.40;6.50;;;4.90;81.80;;;;;;10825209;32;20031;-70
2021/12/08 01:57:44;;;;;;;17.37;10.35;;;4.80;81.60;;;;;;10830857;32;20035;-70
2021/12/08 02:03:47;;;;;;;13.35;10.98;;;4.80;81.60;;;;;;10818844;33;20020;-70
2021/12/08 02:09:49;;;;;;;13.60;10.40;;;4.90;81.60;;;;;;10814318;33;20085;-71
2021/12/08 02:15:52;;;;;;;11.75;8.15;;;4.90;81.90;;;;;;10827846;33;20015;-70
2021/12/08 02:21:54;;;;;;;13.20;7.70;;;4.90;82.30;;;;;;10830179;33;20062;-71
2021/12/08 02:27:58;;;;;;;14.63;10.13;;;4.90;82.60;;;;;;10829801;33;20306;-70
2021/12/08 02:46:51;;;;;;;10.02;7.53;;;4.80;82.70;;;;;;10829418;33;20015;-71
2021/12/08 02:52:56;;;;;;;16.12;9.90;;;4.80;82.90;;;;;;10825597;33;20055;-71
2021/12/08 02:58:59;;;;;;;17.42;9.27;;;4.70;83.10;;;;;;10829101;33;20024;-70
2021/12/08 03:05:01;;;;;;;13.48;9.82;;;4.50;83.00;;;;;;10828577;32;20062;-70
2021/12/08 03:11:04;;;;;;;12.82;8.32;;;4.60;83.10;;;;;;10812152;33;20059;-70
2021/12/08 03:17:09;;;;;;;15.13;7.90;;;4.60;82.90;;;;;;10828593;33;20019;-71
2021/12/08 03:23:20;;;;;;;11.18;8.50;;;4.60;82.80;;;;;;10828213;33;20047;-70
2021/12/08 03:35:26;;;;;;;15.27;8.95;;;4.80;83.70;;;;;;10827840;33;20062;-70
2021/12/08 03:41:32;;;;;;;12.45;8.57;;;4.80;83.50;;;;;;10827757;32;20028;-71
2021/12/08 03:47:39;;;;;;;12.05;7.68;;;4.80;83.20;;;;;;10827805;32;20028;-70
2021/12/08 03:53:41;;;;;;;12.60;7.93;;;4.70;83.10;;;;;;10827520;33;20034;-70
2021/12/08 03:59:44;;;;;;;14.27;8.57;;;4.80;83.20;;;;;;10827398;33;20423;-70
2021/12/08 04:11:56;;;;;;;12.75;9.05;;;4.80;82.80;;;;;;10826871;33;20058;-70
2021/12/08 04:17:59;;;;;;;11.55;8.40;;;4.80;83.00;;;;;;10826138;32;20340;-70
2021/12/08 04:24:01;;;;;;;10.27;7.15;;;4.90;83.40;;;;;;10813456;33;20344;-70
2021/12/08 04:30:11;;;;;;;13.35;8.85;;;4.90;83.20;;;;;;10826296;33;20395;-70
2021/12/08 04:36:16;;;;;;;10.30;6.90;;;4.90;83.30;;;;;;10826327;32;20046;-71
2021/12/08 04:42:27;;;;;;;9.77;6.90;;;4.90;83.30;;;;;;10812755;32;20055;-70
2021/12/08 04:49:04;;;;;;;13.50;7.07;;;4.90;83.40;;;;;;10812956;33;20027;-71
2021/12/08 05:01:45;;;;;;;9.82;5.37;;;5.00;83.60;;;;;;10823782;33;20340;-71
2021/12/08 05:08:10;;;;;;;8.13;5.18;;;4.90;83.70;;;;;;10825434;33;20016;-71
2021/12/08 05:14:16;;;;;;;13.35;6.18;;;4.90;83.70;;;;;;10823666;33;20089;-71
2021/12/08 05:20:26;;;;;;;9.67;5.40;;;4.90;83.30;;;;;;10825016;33;20386;-71
2021/12/08 05:26:53;;;;;;;7.10;4.60;;;4.60;83.50;;;;;;10824811;33;20020;-71
2021/12/08 05:32:56;;;;;;;9.55;4.43;;;4.50;83.80;;;;;;10824796;33;20032;-71
2021/12/08 05:38:59;;;;;;;5.05;3.22;;;4.60;84.20;;;;;;10824653;33;20405;-71
2021/12/08 05:45:07;;;;;;;7.15;3.83;;;4.70;84.20;;;;;;10820290;33;20020;-70
2021/12/08 05:51:14;;;;;;;6.70;3.47;;;4.80;84.10;;;;;;10811216;33;20055;-71
2021/12/08 05:57:27;;;;;;;6.65;4.30;;;4.70;84.00;;;;;;10824297;32;20019;-71
2021/12/08 06:03:30;;;;;;;6.28;3.62;;;4.60;84.00;;;;;;10824217;32;20091;-71
2021/12/08 06:09:33;;;;;;;5.65;3.17;;;4.50;84.50;;;;;;10810813;33;20012;-71
2021/12/08 06:15:36;;;;;;;8.10;4.05;;;4.60;84.70;;;;;;10823658;33;20046;-73
2021/12/08 06:21:38;;;;;;;7.82;4.10;;;4.60;84.10;;;;;;10823508;33;20050;-71
2021/12/08 06:27:41;;;;;;;6.43;3.42;;;4.40;83.90;;;;;;10822405;33;20020;-71
2021/12/08 06:33:43;;;;;;;6.87;3.85;;;4.50;84.50;;;;;;10823425;33;20025;-71
2021/12/08 06:39:59;;;;;;;10.80;6.62;;;4.60;84.50;;;;;;10826633;32;20047;-74
2021/12/08 06:46:02;;;;;;;8.48;5.35;;;4.50;84.30;;;;;;10829293;33;20046;-75
2021/12/08 06:52:11;;;;;;;6.97;4.62;;;4.40;83.90;;;;;;10825479;33;20023;-74
2021/12/08 06:58:19;;;;;;;9.57;5.97;;;4.30;84.20;;;;;;10829216;33;20016;-74
2021/12/08 07:04:33;;;;;;;6.95;4.30;;;4.40;84.80;;;;;;10828787;32;20032;-75
2021/12/08 07:10:40;;;;;;;7.43;3.95;;;4.30;83.90;;;;;;10828831;33;20062;-75
2021/12/08 07:16:47;;;;;;;11.32;5.93;;;4.30;84.70;;;;;;10826803;32;20400;-75
2021/12/08 07:22:51;;;;;;;9.40;4.68;;;4.40;84.80;;;;;;10828443;32;20200;-75
2021/12/08 07:28:56;;;;;;;10.90;5.35;;;4.40;85.20;;;;;;10828265;33;20384;-75
2021/12/08 07:35:04;;;;;;;7.37;5.03;;;4.40;84.90;;;;;;10828022;33;20050;-74
2021/12/08 07:41:12;;;;;;;7.47;3.95;;;4.40;85.20;;;;;;10827860;33;20016;-71
2021/12/08 07:47:16;;;;;;;7.72;3.53;;;4.30;84.50;;;;;;10827884;32;20047;-74
2021/12/08 07:53:24;;;;;;;13.60;4.75;;;4.40;85.20;;;;;;10826473;32;20066;-75
2021/12/08 07:59:27;;;;;;;6.55;4.05;;;4.50;85.00;;;;;;10827376;33;20007;-74
2021/12/08 08:05:32;;;;;;;4.90;3.33;;;4.50;84.70;;;;;;10808593;33;20059;-74
2021/12/08 08:11:41;;;;;;;12.50;4.22;;;4.50;84.80;;;;;;10826535;32;20414;-75
2021/12/08 08:17:45;;;;;;;7.93;3.92;;;4.40;84.20;;;;;;10822660;32;20069;-75
2021/12/08 08:23:48;;;;;;;6.15;3.85;;;4.40;84.50;;;;;;10813563;33;20042;-76
2021/12/08 08:29:54;;;;;;;10.00;5.37;;;4.40;83.70;;;;;;10823321;33;20064;-75
2021/12/08 08:36:04;;;;;;;5.78;3.33;;;4.40;83.50;;;;;;10824199;32;20380;-75
2021/12/08 08:42:16;;;;;;;6.53;3.25;;;4.50;84.00;;;;;;10823297;32;20015;-74
2021/12/08 08:48:24;;;;;;;7.78;4.62;;;4.60;84.40;;;;;;10822495;33;20028;-71
2021/12/08 08:54:31;;;;;;;7.80;4.75;;;4.70;84.40;;;;;;10825901;32;20062;-71
2021/12/08 09:00:54;;;;;;;6.78;4.47;;;4.70;84.00;;;;;;10825087;32;20061;-71
2021/12/08 09:07:02;;;;;;;9.07;6.15;;;4.70;83.50;;;;;;10823459;33;20031;-70
2021/12/08 09:13:35;;;;;;;8.20;4.72;;;4.70;83.20;;;;;;10825102;33;20027;-71
2021/12/08 09:19:43;;;;;;;8.35;4.93;;;4.70;83.50;;;;;;10810697;33;20024;-71
2021/12/08 09:25:54;;;;;;;7.00;4.00;;;4.70;83.60;;;;;;10825039;32;20371;-71
2021/12/08 09:32:08;;;;;;;10.93;6.32;;;4.80;83.70;;;;;;10825427;33;20443;-71
2021/12/08 09:38:27;;;;;;;6.87;4.28;;;4.80;83.30;;;;;;10824706;32;20059;-71
2021/12/08 09:44:36;;;;;;;6.37;3.62;;;4.70;83.40;;;;;;10827546;27;20067;-71
2021/12/08 09:50:39;;;;;;;9.43;5.77;;;4.70;83.40;;;;;;10824362;32;20039;-75
2021/12/08 09:56:42;;;;;;;7.12;4.93;;;4.80;84.20;;;;;;10824289;32;20321;-76
2021/12/08 10:02:44;;;;;;;10.40;5.40;;;4.80;83.80;;;;;;10823871;33;20069;-75
2021/12/08 10:08:49;;;;;;;5.47;3.65;;;4.80;83.80;;;;;;10823942;32;20023;-75
2021/12/08 10:14:51;;;;;;;6.03;4.43;;;4.80;84.10;;;;;;10827214;32;20024;-75
2021/12/08 10:20:56;;;;;;;6.85;4.68;;;4.80;84.10;;;;;;10830176;33;20020;-75
2021/12/08 10:27:08;;;;;;;7.93;4.68;;;4.80;84.50;;;;;;10830044;33;20011;-70
2021/12/08 10:33:48;;;;;;;10.15;5.75;;;4.70;84.30;;;;;;10829752;33;20082;-71
2021/12/08 10:39:52;;;;;;;;;;;4.70;84.70;;;;;;10830033;32;20055;-70
2021/12/08 10:46:03;;;;;;;9.73;6.82;;;4.70;84.50;;;;;;10829492;33;20223;-70
2021/12/08 10:58:30;;;;;;;11.73;6.22;;;4.70;84.90;;;;;;10829809;33;20027;-75
2021/12/08 11:04:33;;;;;;;8.43;4.80;;;4.70;85.10;;;;;;10828997;33;20028;-76
2021/12/08 11:10:45;;;;;;;8.10;5.00;;;4.70;85.30;;;;;;10828836;33;20016;-71
2021/12/08 11:16:47;;;;;;;8.98;6.35;;;4.70;85.30;;;;;;10828797;33;20047;-69
2021/12/08 11:23:01;;;;;;;12.32;8.02;;;4.70;85.70;;;;;;10828123;32;20050;-71
2021/12/08 11:29:13;;;;;;;8.98;6.18;;;4.60;85.90;;;;;;10826000;33;20055;-71
2021/12/08 11:35:20;;;;;;;11.18;7.40;;;4.60;86.30;;;;;;10815021;32;20054;-71
2021/12/08 11:41:37;;;;;;;11.07;6.60;;;4.60;86.40;;;;;;10827926;32;20344;-72
2021/12/08 11:47:42;;;;;;;6.85;4.65;;;4.60;86.40;;;;;;10827829;33;20020;-72
2021/12/08 11:53:44;;;;;;;8.45;5.82;;;4.50;86.50;;;;;;10825651;32;20384;-72
2021/12/08 12:00:00;;;;;;;10.98;8.65;;;4.50;86.80;;;;;;10827522;33;20556;-76
2021/12/08 12:06:04;;;;;;;9.68;7.35;;;4.50;86.60;;;;;;10827429;33;20263;-75
2021/12/08 12:12:07;;;;;;;8.05;5.82;;;4.40;86.80;;;;;;10827075;33;20392;-77
2021/12/08 12:18:11;;;;;;;10.15;5.80;;;4.40;87.10;;;;;;10827199;32;20305;-70
2021/12/08 12:24:32;;;;;;;10.77;7.10;;;4.30;87.50;;;;;;10822567;33;20043;-73
2021/12/08 12:31:19;;;;;;;13.10;6.47;;;4.30;87.60;;;;;;10826536;33;20050;-71
2021/12/08 12:37:29;;;;;;;9.82;7.60;;;4.40;87.80;;;;;;10804768;32;20051;-71
2021/12/08 12:43:37;;;;;;;11.02;6.85;;;4.30;87.60;;;;;;10826114;33;20322;-71
2021/12/08 12:49:47;;;;;;;8.30;5.35;;;4.20;87.70;;;;;;10825946;33;20102;-72
2021/12/08 12:55:49;;;;;;;15.93;11.07;;;4.20;87.70;;;;;;10825824;33;20055;-71
2021/12/08 13:02:21;;;;;;;9.25;8.05;;;4.20;87.60;;;;;;10813092;33;20020;-77
2021/12/08 13:08:44;;;;;;;8.70;5.55;;;4.20;87.70;;;;;;10825465;33;20039;-75
2021/12/08 13:15:13;;;;;;;13.85;7.72;;;4.20;88.00;;;;;;10812193;33;20046;-76
2021/12/08 13:21:35;;;;;;;15.93;9.25;;;4.20;88.20;;;;;;10812548;33;20037;-76
2021/12/08 13:27:48;;;;;;;9.50;7.00;;;4.30;88.10;;;;;;10824843;32;20318;-76
2021/12/08 13:34:11;;;;;;;12.43;8.85;;;4.20;88.10;;;;;;10824775;33;20074;-78
2021/12/08 13:40:15;;;;;;;9.25;5.95;;;4.20;88.50;;;;;;10824983;33;20043;-78
2021/12/08 13:46:43;;;;;;;14.10;9.48;;;4.20;88.60;;;;;;10826334;32;20032;-79
2021/12/08 13:53:13;;;;;;;15.50;10.40;;;4.20;88.80;;;;;;10831373;33;20032;-74
2021/12/08 13:59:58;;;;;;;14.13;11.00;;;4.10;88.90;;;;;;10830923;33;20042;-72
2021/12/08 14:06:00;;;;;;;12.70;8.77;;;4.10;89.10;;;;;;10681652;33;20029;-71
2021/12/08 14:12:02;;;;;;;11.48;8.00;;;4.10;89.40;;;;;;10680629;33;20037;-72
2021/12/08 14:18:26;;;;;;;8.73;5.85;;;4.10;89.50;;;;;;10680403;33;20025;-72
2021/12/08 14:24:28;;;;;;;18.05;9.63;;;4.20;89.50;;;;;;10680492;33;20025;-72
2021/12/08 14:30:30;;;;;;;9.65;5.62;;;4.40;89.40;;;;;;10681139;33;20347;-72
2021/12/08 14:36:55;;;;;;;8.05;6.07;;;4.40;89.40;;;;;;10680846;33;20021;-72
2021/12/08 14:42:57;;;;;;;10.98;7.60;;;4.40;89.40;;;;;;10798967;33;20050;-73
2021/12/08 14:49:03;;;;;;;9.73;6.25;;;4.50;89.30;;;;;;10829506;32;20415;-72
2021/12/08 14:55:09;;;;;;;13.80;11.15;;;4.50;89.30;;;;;;10829269;32;20032;-73
2021/12/08 15:01:13;;;;;;;18.10;11.45;;;4.50;89.40;;;;;;10828713;32;20059;-72
2021/12/08 15:07:19;;;;;;;11.48;9.27;;;4.50;89.60;;;;;;10824957;33;20050;-72
2021/12/08 15:13:29;;;;;;;10.50;7.68;;;4.50;89.60;;;;;;10826431;32;20051;-72
2021/12/08 15:19:31;;;;;;;8.60;6.03;;;4.50;89.70;;;;;;10827656;33;20032;-71
2021/12/08 15:25:33;;;;;;;8.23;5.70;;;4.50;89.70;;;;;;10828377;33;20038;-72
2021/12/08 15:31:38;;;;;;;7.65;4.35;;;4.60;89.70;;;;;;10828209;33;20023;-72
2021/12/08 15:37:53;;;;;;;6.85;3.53;;;4.60;89.80;;;;;;10828037;32;20051;-72
2021/12/08 15:44:09;;;;;;;6.55;3.60;;;4.70;89.80;;;;;;10827962;32;20055;-72
2021/12/08 15:50:37;;;;;;;8.18;4.72;;;4.70;89.60;;;;;;10827093;33;20048;-72
2021/12/08 15:56:42;;;;;;;7.50;4.57;;;4.70;89.60;;;;;;10826387;32;20504;-72
2021/12/08 16:02:44;;;;;;;6.10;4.07;;;4.70;89.70;;;;;;10825391;33;20019;-73
2021/12/08 16:08:48;;;;;;;6.87;5.07;;;4.70;89.70;;;;;;10827212;33;20070;-73
2021/12/08 16:14:57;;;;;;;7.10;3.87;;;4.70;89.60;;;;;;10824657;32;20024;-74
2021/12/08 16:21:00;;;;;;;6.70;4.05;;;4.70;89.70;;;;;;10826865;33;20043;-74
2021/12/08 16:27:04;;;;;;;7.55;4.53;;;4.80;89.80;;;;;;10811529;33;20066;-74
2021/12/08 16:33:08;;;;;;;4.28;2.62;;;4.80;89.80;;;;;;10826452;33;20050;-74
2021/12/08 16:39:13;;;;;;;6.82;3.33;;;4.80;89.80;;;;;;10826390;33;20012;-74
2021/12/08 16:45:18;;;;;;;3.90;2.37;;;4.90;89.80;;;;;;10397927;33;12257985;-77
2021/12/08 16:51:20;;;;;;;3.97;2.42;;;4.90;89.70;;;;;;10749540;33;20048;-77
2021/12/08 16:57:22;;;;;;;6.62;4.37;;;4.90;89.70;;;;;;10745070;33;20068;-76
2021/12/08 17:03:28;;;;;;;5.78;3.28;;;5.00;89.80;;;;;;10749365;33;20060;-77
2021/12/08 17:09:31;;;;;;;4.28;2.45;;;5.00;89.70;;;;;;10773799;33;20032;-76
2021/12/08 17:15:35;;;;;;;4.95;2.30;;;4.90;89.70;;;;;;10825551;33;20023;-77
2021/12/08 17:21:39;;;;;;;5.15;2.78;;;5.00;89.70;;;;;;10829052;32;20026;-79
2021/12/08 17:27:42;;;;;;;3.12;1.73;;;5.00;89.60;;;;;;10828405;33;20391;-77
2021/12/08 17:33:44;;;;;;;5.32;3.10;;;5.00;89.70;;;;;;10825617;33;20058;-76
2021/12/08 17:39:46;;;;;;;4.82;2.75;;;5.00;89.70;;;;;;10824992;33;20049;-76
2021/12/08 17:45:49;;;;;;;5.40;3.67;;;5.00;89.80;;;;;;10827132;27;20050;-75
2021/12/08 17:51:51;;;;;;;3.40;1.95;;;5.00;89.80;;;;;;10824649;32;20068;-74
2021/12/08 17:57:54;;;;;;;6.50;3.00;;;5.10;89.80;;;;;;10824628;33;20041;-75
2021/12/08 18:03:58;;;;;;;5.43;2.78;;;5.10;89.90;;;;;;10820235;32;20028;-75
2021/12/08 18:10:00;;;;;;;5.30;3.00;;;5.10;89.90;;;;;;10819977;32;20020;-74
2021/12/08 18:16:03;;;;;;;4.75;2.75;;;5.10;89.90;;;;;;10810861;32;20051;-74
2021/12/08 18:22:05;;;;;;;4.65;2.17;;;5.10;89.80;;;;;;10823906;32;20312;-75
2021/12/08 18:28:10;;;;;;;4.30;2.47;;;5.10;89.90;;;;;;10810778;33;20046;-77
2021/12/08 18:34:15;;;;;;;4.35;3.10;;;5.20;89.80;;;;;;10824942;32;20059;-75
2021/12/08 18:40:18;;;;;;;8.38;4.85;;;5.10;89.80;;;;;;10829829;32;20070;-75
2021/12/08 18:46:21;;;;;;;4.78;2.58;;;5.10;89.80;;;;;;10816491;33;20020;-72
2021/12/08 18:52:23;;;;;;;6.47;4.35;;;5.10;89.90;;;;;;10816169;33;20336;-71
2021/12/08 18:58:28;;;;;;;11.30;6.57;;;5.10;89.80;;;;;;10829388;33;20016;-72
2021/12/08 19:04:32;;;;;;;5.97;3.62;;;5.10;89.90;;;;;;10829184;33;20389;-72
2021/12/08 19:10:36;;;;;;;4.82;3.25;;;5.20;90.00;;;;;;10828967;32;20422;-72
2021/12/08 19:16:38;;;;;;;4.45;2.90;;;5.10;89.90;;;;;;10828739;33;20050;-76
2021/12/08 19:22:41;;;;;;;3.12;2.17;;;5.20;90.00;;;;;;10826837;33;20028;-75
2021/12/08 19:28:44;;;;;;;8.50;3.83;;;5.10;90.00;;;;;;10828484;33;20212;-75
2021/12/08 19:34:46;;;;;;;7.22;3.47;;;5.20;89.90;;;;;;10827675;33;20065;-78
2021/12/08 19:40:49;;;;;;;5.10;2.83;;;5.20;89.90;;;;;;10828185;33;20027;-77
2021/12/08 19:46:53;;;;;;;4.95;2.17;;;5.10;89.90;;;;;;10827747;32;20056;-78
2021/12/08 19:52:56;;;;;;;3.53;2.00;;;5.20;89.80;;;;;;10814587;33;20024;-79
2021/12/08 19:58:58;;;;;;;6.93;2.22;;;5.10;90.00;;;;;;10827649;33;20043;-76
2021/12/08 20:05:00;;;;;;;3.95;1.90;;;5.10;90.00;;;;;;10827443;33;20046;-75
2021/12/08 20:11:04;;;;;;;2.55;1.60;;;5.10;89.90;;;;;;10822929;33;20055;-75
2021/12/08 20:17:07;;;;;;;3.05;1.73;;;5.10;89.90;;;;;;10827531;33;20047;-75
2021/12/08 20:23:09;;;;;;;3.30;1.70;;;5.10;90.00;;;;;;10826914;33;20340;-75
2021/12/08 20:29:12;;;;;;;2.67;1.50;;;5.10;89.90;;;;;;10826656;33;20028;-75
2021/12/08 20:35:19;;;;;;;2.80;1.83;;;5.00;90.00;;;;;;10826447;33;20046;-74
2021/12/08 20:41:24;;;;;;;1.73;1.12;;;5.00;90.00;;;;;;10826345;33;20063;-74
2021/12/08 20:47:26;;;;;;;3.03;1.52;;;5.00;90.00;;;;;;10825996;33;20024;-75
2021/12/08 20:53:29;;;;;;;1.85;1.12;;;5.00;89.90;;;;;;10825742;33;20035;-75
2021/12/08 20:59:34;;;;;;;1.85;1.50;;;5.00;89.90;;;;;;10825429;32;20028;-74
2021/12/08 21:05:36;;;;;;;2.30;1.20;;;5.10;89.70;;;;;;10821636;33;20050;-74
2021/12/08 21:11:39;;;;;;;2.30;1.10;;;5.10;89.80;;;;;;10824267;32;20404;-74
2021/12/08 21:17:45;;;;;;;1.80;1.17;;;5.10;89.60;;;;;;10824105;33;20019;-74
2021/12/08 21:23:48;;;;;;;1.02;0.80;;;5.20;89.60;;;;;;10825050;33;20028;-74
2021/12/08 21:29:50;;;;;;;2.50;1.52;;;5.20;89.60;;;;;;10825022;33;20439;-71
2021/12/08 21:35:53;;;;;;;1.65;1.20;;;5.20;89.60;;;;;;10824914;32;20352;-71
2021/12/08 21:41:55;;;;;;;2.55;1.52;;;5.30;89.50;;;;;;10824855;32;20032;-71
2021/12/08 21:47:57;;;;;;;3.72;1.80;;;5.30;89.50;;;;;;10824593;33;20032;-71
2021/12/08 21:54:00;;;;;;;4.47;1.50;;;5.30;89.50;;;;;;10824517;33;20477;-74
2021/12/08 22:00:10;;;;;;;2.92;1.45;;;5.40;89.60;;;;;;10824470;33;20077;-74
2021/12/08 22:06:13;;;;;;;2.35;1.35;;;5.40;89.50;;;;;;10824215;32;20090;-71
2021/12/08 22:12:15;;;;;;;1.90;1.02;;;5.50;89.50;;;;;;10829043;32;20032;-71
2021/12/08 22:18:23;;;;;;;1.75;1.02;;;5.50;89.40;;;;;;10830575;32;20024;-71
2021/12/08 22:24:25;;;;;;;1.35;0.90;;;5.60;89.40;;;;;;10830272;33;20027;-71
2021/12/08 22:30:27;;;;;;;7.30;2.15;;;5.60;89.30;;;;;;10830220;32;20384;-71
2021/12/08 22:36:30;;;;;;;1.40;0.88;;;5.60;89.30;;;;;;10813112;33;20031;-73
2021/12/08 22:42:32;;;;;;;1.87;0.90;;;5.70;89.30;;;;;;10829689;33;20028;-74
2021/12/08 22:48:37;;;;;;;0.85;0.80;;;5.70;89.20;;;;;;10829678;33;20097;-73
2021/12/08 22:54:39;;;;;;;1.33;1.00;;;5.70;89.20;;;;;;10828752;33;20438;-74
2021/12/08 23:01:06;;;;;;;1.52;1.23;;;5.70;89.10;;;;;;10829423;32;20101;-74
2021/12/08 23:07:08;;;;;;;0.50;0.50;;;5.80;89.10;;;;;;10828959;33;20047;-74
2021/12/08 23:13:17;;;;;;;3.35;1.83;;;5.80;89.00;;;;;;10828876;33;20036;-73
2021/12/08 23:19:23;;;;;;;3.30;2.00;;;5.80;89.00;;;;;;10825856;32;20050;-74
2021/12/08 23:25:25;;;;;;;2.72;1.45;;;5.80;89.00;;;;;;10828646;32;20035;-71
2021/12/08 23:31:28;;;;;;;2.97;1.87;;;5.80;88.90;;;;;;10828416;32;20031;-71
2021/12/08 23:37:46;;;;;;;3.17;1.92;;;5.80;89.00;;;;;;10828161;33;20051;-71
2021/12/08 23:43:51;;;;;;;4.78;3.15;;;5.70;88.90;;;;;;10823982;33;20020;-71
2021/12/08 23:49:53;;;;;;;7.28;4.53;;;5.70;88.80;;;;;;10827987;32;20066;-70
2021/12/08 23:55:56;;;;;;;7.35;4.35;;;5.70;88.80;;;;;;10827659;32;20051;-71
